Latest Coastal Weather Observations for Bunbury

IDW60701

Issued at 10:02 am WST Tuesday 26 May 2015 (issued every 10 minutes, with the page automatically refreshed every 10 minutes)

About coastal observations | Map of coastal stations | Coastal observations for WA | Marine services | Other Formats
Station Details ID: 009965 Name: BUNBURY Lat: -33.36 Lon: 115.64 Height: 5.2 m
Data from the previous 72 hours. | See also: Recent months at Bunbury
Date/Time
WST
Temp

°C
Wind Pressure Rain
since 9am
mm
Weather Cloud Vis
km
Sea
Height
m
Swell
Dir
 
Speed
knots
Gust
knots
hPa Trend Height
m
Period
s
Dir
26/10:00am 17.4 SW 4 8 1023.7 - 0.0 - - - - - - -
26/09:30am 16.3 SSW 3 4 1023.5 - 0.0 - - - - - - -
26/09:00am 15.4 E 1 2 1023.4 - 1.8 - - - - - - -
26/08:30am 14.1 E 1 2 1023.2 - 1.8 - - - - - - -
26/08:00am 13.5 CALM 0 0 1023.0 - 1.8 - - - - - - -
26/07:30am 13.1 CALM 0 0 1022.8 - 1.8 - - - - - - -
26/07:00am 13.0 E 2 3 1022.5 - 1.8 - - - - - - -
26/06:30am 12.8 CALM 0 0 1022.4 - 1.8 - - - - - - -
26/06:00am 12.3 CALM 0 0 1022.0 - 1.8 Recent precip. - - - - - -
26/05:30am 12.0 CALM 0 0 1022.0 - 1.8 - - - - - - -
26/05:00am 11.4 SSE 2 4 1021.9 - 1.2 - - - - - - -
26/04:30am 10.7 ESE 1 2 1021.4 - 0.2 - - - - - - -
26/04:00am 10.1 ENE 1 2 1021.3 - 0.2 - - - - - - -
26/03:30am 10.1 E 2 3 1021.3 - 0.2 - - - - - - -
26/03:00am 11.0 SE 2 3 1021.5 - 0.2 - - - - - - -
26/02:30am 10.4 E 2 2 1021.6 - 0.2 - - - - - - -
26/02:00am 11.4 CALM 0 0 1021.6 - 0.2 - - - - - - -
26/01:30am 11.7 SE 1 2 1021.9 - 0.2 - - - - - - -
26/01:00am 12.5 WNW 1 2 1022.1 - 0.2 - - - - - - -
26/12:30am 10.9 ENE 1 2 1022.1 - 0.0 - - - - - - -
26/12:00am 10.5 CALM 0 0 1022.3 - 0.0 - - - - - - -
 
Date/Time
WST
Temp

°C
Wind Pressure Rain
since 9am
mm
Weather Cloud Vis
km
Sea
Height
m
Swell
Dir
 
Speed
knots
Gust
knots
hPa Trend Height
m
Period
s
Dir
25/11:30pm 10.4 E 1 3 1022.3 - 0.0 - - - - - - -
25/11:00pm 11.1 CALM 0 0 1022.5 - 0.0 - - - - - - -
25/10:30pm 11.8 CALM 0 0 1022.5 - 0.0 - - - - - - -
25/10:00pm 10.7 CALM 0 0 1022.4 - 0.0 - - - - - - -
25/09:30pm 11.4 CALM 0 0 1022.4 - 0.0 - - - - - - -
25/09:00pm 11.8 CALM 0 0 1022.1 - 0.0 - - - - - - -
25/08:30pm 12.5 CALM 0 0 1022.3 - 0.0 - - - - - - -
25/08:00pm 12.6 CALM 0 0 1022.0 - 0.0 - - - - - - -
25/07:30pm 13.9 ENE 1 2 1021.9 - 0.0 - - - - - - -
25/07:00pm 15.0 WNW 2 4 1021.8 - 0.0 - - - - - - -
25/06:30pm 16.0 SSW 4 7 1021.6 - 0.0 - - - - - - -
25/06:00pm 16.5 W 2 3 1021.3 - 0.0 - - - - - - -
25/05:30pm 17.4 WNW 3 5 1021.1 - 0.0 - - - - - - -
25/05:00pm 17.8 W 5 7 1021.0 - 0.0 - - - - - - -
25/04:30pm 18.7 W 4 7 1020.8 - 0.0 - - - - - - -
25/04:00pm 18.0 WNW 5 7 1020.9 - 0.0 - - - - - - -
25/03:30pm 18.2 W 5 7 1020.8 - 0.0 - - - - - - -
25/03:00pm 18.6 WSW 6 9 1020.9 - 0.0 - - - - - - -
25/02:30pm 19.0 W 6 9 1020.8 - 0.0 - - - - - - -
25/02:00pm 18.6 NNW 6 8 1020.7 - 0.0 - - - - - - -
25/01:30pm 19.2 NNW 5 7 1020.8 - 0.0 - - - - - - -
25/01:00pm 19.0 NNW 6 8 1020.9 - 0.0 - - - - - - -
25/12:30pm 19.3 NNW 5 7 1021.1 - 0.0 - - - - - - -
25/12:00pm 18.9 N 6 8 1021.5 - 0.0 - - - - - - -
25/11:30am 19.9 N 5 7 1021.8 - 0.0 - - - - - - -
25/11:00am 18.9 N 6 8 1021.9 - 0.0 - - - - - - -
25/10:30am 18.5 NNE 5 7 1022.2 - 0.0 - - - - - - -
25/10:00am 18.0 NNE 5 7 1022.5 - 0.0 - - - - - - -
25/09:30am 16.4 ENE 3 5 1022.5 - 0.0 - - - - - - -
25/09:00am 14.8 ENE 2 3 1022.6 - 0.0 - - - - - - -
25/08:30am 11.6 NNW 1 2 1022.6 - 0.0 - - - - - - -
25/08:00am 9.6 CALM 0 0 1022.5 - 0.0 - - - - - - -
25/07:30am 8.2 CALM 0 0 1022.2 - 0.0 - - - - - - -
25/07:00am 8.6 E 1 2 1022.0 - 0.0 - - - - - - -
25/06:30am 10.2 S 3 4 1021.8 - 0.0 - - - - - - -
25/06:00am 10.2 CALM 0 3 1021.6 - 0.0 - - - - - - -
25/05:30am 9.4 ESE 2 3 1021.6 - 0.0 - - - - - - -
25/05:00am 9.4 ESE 2 3 1021.6 - 0.0 - - - - - - -
25/04:30am 9.2 ENE 1 2 1021.6 - 0.0 - - - - - - -
25/04:00am 9.7 CALM 0 3 1021.8 - 0.0 - - - - - - -
25/03:30am 9.6 E 1 2 1022.0 - 0.0 - - - - - - -
25/03:00am 9.6 ENE 3 4 1022.1 - 0.0 - - - - - - -
25/02:30am 9.3 ENE 2 3 1022.2 - 0.0 - - - - - - -
25/02:00am 9.2 CALM 0 0 1022.2 - 0.0 - - - - - - -
25/01:30am 8.9 CALM 0 0 1022.2 - 0.0 - - - - - - -
25/01:00am 8.2 CALM 0 0 1022.4 - 0.0 - - - - - - -
25/12:30am 8.2 CALM 0 0 1022.4 - 0.0 - - - - - - -
25/12:00am 8.0 ESE 1 2 1022.4 - 0.0 - - - - - - -
 
Date/Time
WST
Temp

°C
Wind Pressure Rain
since 9am
mm
Weather Cloud Vis
km
Sea
Height
m
Swell
Dir
 
Speed
knots
Gust
knots
hPa Trend Height
m
Period
s
Dir
24/11:30pm 7.3 CALM 0 0 1022.4 - 0.0 - - - - - - -
24/11:00pm 8.0 CALM 0 0 1022.4 - 0.0 - - - - - - -
24/10:30pm 8.8 E 1 3 1022.4 - 0.0 - - - - - - -
24/10:00pm 8.7 CALM 0 2 1022.5 - 0.0 - - - - - - -
24/09:30pm 9.5 CALM 0 0 1022.5 - 0.0 - - - - - - -
24/09:00pm 9.4 CALM 0 0 1022.3 - 0.0 - - - - - - -
24/08:30pm 11.1 CALM 0 0 1022.2 - 0.0 - - - - - - -
24/08:00pm 10.9 CALM 0 1 1022.1 - 0.0 - - - - - - -
24/07:30pm 10.5 SSW 2 3 1022.1 - 0.0 - - - - - - -
24/07:00pm 11.8 SW 2 2 1022.0 - 0.0 - - - - - - -
24/06:30pm 12.3 CALM 0 0 1021.8 - 0.0 - - - - - - -
24/06:00pm 13.9 CALM 0 1 1021.4 - 0.0 - - - - - - -
24/05:30pm 16.0 SW 2 3 1021.3 - 0.0 - - - - - - -
24/05:00pm 16.8 SSW 4 5 1021.2 - 0.0 - - - - - - -
24/04:30pm 17.2 SW 4 6 1021.1 - 0.0 - - - - - - -
24/04:00pm 18.6 SW 5 7 1020.9 - 0.0 - - - - - - -
24/03:30pm 18.5 WSW 5 7 1020.9 - 0.0 - - - - - - -
24/03:00pm 20.4 ESE 1 2 1020.7 - 0.0 - - - - - - -
24/02:30pm 19.6 ESE 3 4 1020.7 - 0.0 - - - - - - -
24/02:00pm 19.5 SE 5 7 1020.8 - 0.0 - - - - - - -
24/01:30pm 20.0 ENE 7 11 1020.8 - 0.0 - - - - - - -
24/01:00pm 19.5 ESE 6 9 1021.0 - 0.0 - - - - - - -
24/12:30pm 18.8 ESE 3 5 1021.6 - 0.0 - - - - - - -
24/12:00pm 19.0 E 1 3 1021.9 - 0.0 - - - - - - -
24/11:30am 18.6 E 4 6 1022.3 - 0.0 - - - - - - -
24/11:00am 18.1 NE 5 7 1022.5 - 0.0 - - - - - - -
24/10:30am 17.3 NE 6 7 1022.7 - 0.0 - - - - - - -
24/10:00am 15.8 NE 6 9 1022.7 - 0.0 - - - - - - -
24/09:30am 14.5 NE 5 8 1022.9 - 0.0 - - - - - - -
24/09:00am 13.2 E 2 4 1022.9 - 1.2 - - - - - - -
24/08:30am 11.7 E 6 9 1022.6 - 1.2 - - - - - - -
24/08:00am 11.0 E 3 4 1022.6 - 1.2 - - - - - - -
24/07:30am 10.4 ENE 2 3 1022.5 - 1.2 - - - - - - -
24/07:00am 9.3 E 1 3 1022.4 - 1.2 - - - - - - -
24/06:30am 8.8 CALM 0 1 1022.2 - 1.2 - - - - - - -
24/06:00am 8.2 E 3 5 1022.0 - 1.2 - - - - - - -
24/05:30am 7.6 CALM 0 0 1022.0 - 1.2 - - - - - - -
24/05:00am 7.6 ESE 1 3 1021.8 - 1.2 - - - - - - -
24/04:30am 6.0 CALM 0 0 1021.7 - 1.2 - - - - - - -
24/04:00am 6.9 CALM 0 0 1021.5 - 1.2 - - - - - - -
24/03:30am 7.3 E 2 2 1021.4 - 1.2 - - - - - - -
24/03:00am 7.4 CALM 0 0 1021.4 - 1.2 - - - - - - -
24/02:30am 6.6 CALM 0 0 1021.3 - 1.2 - - - - - - -
24/02:00am 7.0 CALM 0 0 1021.1 - 1.2 - - - - - - -
24/01:30am 6.7 CALM 0 0 1020.9 - 1.2 - - - - - - -
24/01:00am 7.5 CALM 0 0 1020.8 - 1.2 - - - - - - -
24/12:30am 8.1 CALM 0 0 1020.8 - 1.2 - - - - - - -
24/12:00am 8.4 CALM 0 0 1020.8 - 1.2 - - - - - - -
 
Date/Time
WST
Temp

°C
Wind Pressure Rain
since 9am
mm
Weather Cloud Vis
km
Sea
Height
m
Swell
Dir
 
Speed
knots
Gust
knots
hPa Trend Height
m
Period
s
Dir
23/11:30pm 9.6 CALM 0 0 1020.7 - 1.2 - - - - - - -
23/11:00pm 9.8 SSW 1 2 1020.8 - 1.2 - - - - - - -
23/10:30pm 9.9 CALM 0 2 1020.8 - 1.2 - - - - - - -
23/10:00pm 9.8 ESE 1 2 1020.8 - 1.2 - - - - - - -
23/09:30pm 10.8 CALM 0 0 1021.0 - 1.2 - - - - - - -
23/09:00pm 11.5 S 2 2 1020.9 - 1.2 - - - - - - -
23/08:30pm 12.3 S 2 2 1020.8 - 1.2 - - - - - - -
23/08:00pm 13.0 S 3 5 1020.6 - 1.2 - - - - - - -
23/07:30pm 13.7 S 4 5 1020.4 - 1.2 - - - - - - -
23/07:00pm 15.1 SSW 5 8 1019.9 - 1.2 - - - - - - -
23/06:30pm 14.7 SSW 3 5 1019.7 - 1.2 - - - - - - -
23/06:00pm 15.9 SW 4 6 1019.4 - 1.2 - - - - - - -
23/05:30pm 16.7 SW 4 6 1019.0 - 1.2 - - - - - - -
23/05:00pm 17.6 SSW 6 9 1018.8 - 1.2 - - - - - - -
23/04:30pm 18.2 SW 6 12 1018.6 - 1.2 - - - - - - -
23/04:00pm 18.2 SW 8 11 1018.3 - 1.2 - - - - - - -
23/03:30pm 18.9 WSW 7 13 1018.0 - 1.2 - - - - - - -
23/03:00pm 19.1 WSW 6 9 1017.9 - 1.2 - - - - - - -
23/02:30pm 19.3 WSW 7 10 1017.7 - 1.2 - - - - - - -
23/02:00pm 19.5 SW 5 9 1017.7 - 1.2 - - - - - - -
23/01:30pm 19.1 SW 6 10 1017.8 - 1.2 - - - - - - -
23/01:00pm 19.0 WSW 4 6 1017.8 - 1.2 - - - - - - -
23/12:30pm 18.3 ESE 1 2 1018.0 - 1.2 - - - - - - -
23/12:00pm 18.6 CALM 0 1 1018.4 - 1.2 Recent precip. - - - - - -
23/11:30am 17.6 NNE 5 7 1018.5 - 0.0 - - - - - - -
23/11:00am 18.4 ENE 3 5 1018.5 - 0.0 - - - - - - -
23/10:30am 18.2 NE 3 4 1018.6 - 0.0 - - - - - - -

Other Formats:

Comma delimited format used in spreadsheet applications
http://www.bom.gov.au/fwo/IDW60701/IDW60701.94604.axf

JavaScript Object Notation format (JSON) in row-major order
http://www.bom.gov.au/fwo/IDW60701/IDW60701.94604.json